.
WxDataArchive / Data Records for 2007-06-29
2007-06-28 June 2007 2007-06-30

Data Records for Friday, 29 June 2007

Time	Temp	Chill	HIndex	Humid	Dewpt	 Wind 	HiWind	WindDir	Rain 	Barom 
-----	----	-----	------	-----	-----	------	------	-------	-----	----- 
00:00	69.1	69.1	69.1	76	61.2	1	2	90	0.00	30.016 
00:05	68.9	68.9	68.9	76	61.0	1	5	90	0.00	30.013 
00:10	68.9	68.9	68.9	77	61.4	0	1	90	0.00	30.017 
00:15	68.8	68.8	68.8	77	61.3	0	3	90	0.00	30.018 
00:20	68.8	68.8	68.8	77	61.3	1	4	90	0.00	30.017 
00:25	68.6	68.6	68.6	78	61.5	1	3	90	0.00	30.018 
00:30	68.6	68.6	68.6	79	61.8	1	4	112	0.00	30.016 
00:35	68.4	68.4	68.4	79	61.6	0	3	112	0.00	30.018 
00:40	68.3	68.3	68.3	80	61.9	1	4	90	0.00	30.016 
00:45	68.1	68.1	68.1	80	61.7	1	3	90	0.00	30.011 
00:50	67.9	67.9	67.9	80	61.5	2	5	90	0.00	30.011 
00:55	67.8	67.8	67.8	81	61.7	1	2	90	0.00	30.011 
01:00	67.6	67.6	67.6	82	61.9	0	2	90	0.00	30.009 
01:05	67.4	67.4	67.4	83	62.0	1	3	112	0.00	30.008 
01:10	67.1	67.1	67.1	82	61.4	2	4	90	0.00	30.008 
01:15	66.9	66.9	66.9	81	60.9	2	5	90	0.00	30.007 
01:20	66.8	66.8	66.8	81	60.8	2	6	90	0.00	30.008 
01:25	66.6	66.6	66.6	81	60.6	1	3	68	0.00	30.009 
01:30	66.4	66.4	66.4	81	60.4	2	4	90	0.00	30.011 
01:35	66.1	66.1	66.1	80	59.7	2	4	90	0.00	30.011 
01:40	66.0	66.0	66.0	79	59.3	3	6	90	0.00	30.011 
01:45	65.8	65.8	65.8	79	59.1	2	6	68	0.00	30.010 
01:50	65.6	65.6	65.6	80	59.3	2	5	112	0.00	30.008 
01:55	65.5	65.5	65.5	80	59.2	2	4	112	0.00	30.007 
02:00	65.2	65.2	65.2	81	59.2	1	3	112	0.00	30.005 
02:05	65.0	65.0	65.0	81	59.0	2	3	90	0.00	30.005 
02:10	64.8	64.8	64.8	82	59.2	1	3	90	0.00	30.005 
02:15	64.5	64.5	64.5	82	58.9	1	4	90	0.00	30.004 
02:20	64.5	64.5	64.5	83	59.2	1	4	90	0.00	30.001 
02:25	64.3	64.3	64.3	83	59.0	1	4	90	0.00	29.998 
02:30	64.2	64.2	64.2	84	59.3	1	4	90	0.00	29.999 
02:35	64.0	64.0	64.0	84	59.1	2	5	90	0.00	30.003 
02:40	64.0	64.0	64.0	84	59.1	1	4	112	0.00	30.001 
02:45	63.9	63.9	63.9	85	59.3	1	3	112	0.00	30.001 
02:50	63.7	63.7	63.7	85	59.1	1	2	112	0.00	30.004 
02:55	63.5	63.5	63.5	85	58.9	1	3	112	0.00	30.001 
03:00	63.4	63.4	63.4	86	59.1	1	3	90	0.00	30.006 
03:05	63.2	63.2	63.2	86	58.9	1	3	90	0.00	30.006 
03:10	63.2	63.2	63.2	86	58.9	1	2	90	0.00	30.005 
03:15	63.1	63.1	63.1	87	59.2	1	3	90	0.00	30.007 
03:20	63.1	63.1	63.1	87	59.2	1	3	90	0.00	30.007 
03:25	62.9	62.9	62.9	87	59.0	1	3	90	0.00	30.009 
03:30	62.7	62.7	62.7	87	58.8	1	3	90	0.00	30.010 
03:35	62.7	62.7	62.7	88	59.1	1	3	112	0.00	30.011 
03:40	62.6	62.6	62.6	88	59.0	1	3	112	0.00	30.011 
03:45	62.6	62.6	62.6	88	59.0	1	4	112	0.00	30.011 
03:50	62.4	62.4	62.4	88	58.8	0	2	112	0.00	30.017 
03:55	62.4	62.4	62.4	88	58.8	1	3	112	0.00	30.020 
04:00	62.3	62.3	62.3	88	58.7	0	3	112	0.00	30.022 
04:05	62.1	62.1	62.1	88	58.5	0	2	112	0.00	30.024 
04:10	62.0	62.0	62.0	87	58.1	1	3	112	0.00	30.024 
04:15	62.0	62.0	62.0	87	58.1	0	1	112	0.00	30.026 
04:20	62.0	62.0	62.0	87	58.1	1	2	90	0.00	30.027 
04:25	62.0	62.0	62.0	86	57.8	1	3	90	0.00	30.027 
04:30	62.0	62.0	62.0	85	57.4	1	5	90	0.00	30.029 
04:35	62.0	62.0	62.0	85	57.4	1	3	112	0.00	30.029 
04:40	62.0	62.0	62.0	85	57.4	1	4	112	0.00	30.030 
04:45	62.0	62.0	62.0	85	57.4	1	3	90	0.00	30.036 
04:50	62.0	62.0	62.0	85	57.4	2	4	112	0.00	30.041 
04:55	61.8	61.8	61.8	84	56.9	2	5	90	0.00	30.043 
05:00	61.8	61.8	61.8	84	56.9	1	4	112	0.00	30.043 
05:05	61.8	61.8	61.8	83	56.6	2	6	112	0.00	30.043 
05:10	61.6	61.6	61.6	83	56.4	1	5	112	0.00	30.044 
05:15	61.5	61.5	61.5	82	55.9	2	6	68	0.00	30.046 
05:20	61.5	61.5	61.5	81	55.6	1	3	90	0.00	30.050 
05:25	61.3	61.3	61.3	81	55.4	3	7	90	0.00	30.053 
05:30	61.2	61.2	61.2	80	55.0	2	5	112	0.00	30.055 
05:35	61.2	61.2	61.2	80	55.0	2	6	112	0.00	30.054 
05:40	61.0	61.0	61.0	80	54.8	2	7	112	0.00	30.059 
05:45	60.9	60.9	60.9	80	54.7	2	6	90	0.00	30.059 
05:50	60.9	60.9	60.9	80	54.7	1	3	68	0.00	30.058 
05:55	60.7	60.7	60.7	80	54.5	2	4	90	0.00	30.058 
06:00	60.7	60.7	60.7	80	54.5	2	4	90	0.00	30.058 
06:05	60.5	60.5	60.5	80	54.3	2	4	90	0.00	30.061 
06:10	60.4	60.4	60.4	79	53.9	2	6	112	0.00	30.063 
06:15	60.4	60.4	60.4	79	53.9	1	3	90	0.00	30.064 
06:20	60.4	60.4	60.4	77	53.2	2	6	112	0.00	30.065 
06:25	60.4	60.4	60.4	77	53.2	2	5	112	0.00	30.067 
06:30	60.4	60.4	60.4	76	52.8	2	4	112	0.00	30.068 
06:35	60.7	60.7	60.7	75	52.7	2	5	112	0.00	30.071 
06:40	61.2	61.2	61.2	73	52.5	2	5	112	0.00	30.073 
06:45	61.5	61.5	61.5	73	52.8	1	5	90	0.00	30.071 
06:50	61.8	61.8	61.8	72	52.7	2	5	90	0.00	30.071 
06:55	62.1	62.1	62.1	69	51.8	2	8	112	0.00	30.069 
07:00	62.3	62.3	62.3	69	52.0	4	7	112	0.00	30.069 
07:05	62.6	62.6	62.6	67	51.5	2	7	112	0.00	30.067 
07:10	62.6	62.6	62.6	68	51.9	3	7	90	0.00	30.066 
07:15	62.7	62.7	62.7	67	51.6	2	5	112	0.00	30.073 
07:20	62.9	62.9	62.9	65	50.9	3	6	90	0.00	30.074 
07:25	63.2	63.2	63.2	65	51.2	2	5	90	0.00	30.075 
07:30	63.2	63.2	63.2	64	50.8	3	10	90	0.00	30.076 
07:35	63.4	63.4	63.4	65	51.4	3	7	90	0.00	30.077 
07:40	63.7	63.7	63.7	65	51.7	2	5	90	0.00	30.075 
07:45	64.5	64.5	64.5	64	52.0	1	4	90	0.00	30.074 
07:50	64.5	64.5	64.5	63	51.6	3	10	90	0.00	30.076 
07:55	64.5	64.5	64.5	63	51.6	3	7	90	0.00	30.076 
08:00	64.5	64.5	64.5	64	52.0	3	6	112	0.00	30.076 
08:05	64.7	64.7	64.7	63	51.8	2	6	68	0.00	30.080 
08:10	64.5	64.5	64.5	61	50.7	4	9	112	0.00	30.081 
08:15	64.7	64.7	64.7	62	51.4	2	5	90	0.00	30.081 
08:20	65.2	65.2	65.2	62	51.8	2	4	90	0.00	30.079 
08:25	65.5	65.5	65.5	62	52.1	2	6	112	0.00	30.076 
08:30	66.0	66.0	66.0	59	51.3	3	7	112	0.00	30.077 
08:35	66.3	66.3	66.3	59	51.5	2	5	112	0.00	30.078 
08:40	66.4	66.4	66.4	60	52.1	2	9	90	0.00	30.077 
08:45	66.1	66.1	66.1	58	50.9	3	7	112	0.00	30.079 
08:50	66.3	66.3	66.3	61	52.4	3	6	90	0.00	30.082 
08:55	66.4	66.4	66.4	57	50.7	4	10	90	0.00	30.081 
09:00	66.8	66.8	66.8	58	51.5	2	10	68	0.00	30.081 
09:05	67.3	67.3	67.3	56	51.1	3	7	90	0.00	30.086 
09:10	67.3	67.3	67.3	59	52.5	3	6	90	0.00	30.083 
09:15	67.6	67.6	67.6	58	52.3	3	10	90	0.00	30.082 
09:20	67.9	67.9	67.9	58	52.6	3	5	112	0.00	30.083 
09:25	67.9	67.9	67.9	55	51.1	3	9	90	0.00	30.080 
09:30	67.8	67.8	67.8	57	52.0	2	5	90	0.00	30.083 
09:35	67.8	67.8	67.8	56	51.5	3	10	112	0.00	30.082 
09:40	68.4	68.4	68.4	55	51.6	2	5	90	0.00	30.077 
09:45	68.6	68.6	68.6	55	51.8	3	6	112	0.00	30.079 
09:50	68.6	68.6	68.6	54	51.3	2	5	112	0.00	30.085 
09:55	69.1	69.1	69.1	54	51.7	2	7	68	0.00	30.087 
10:00	68.9	68.9	68.9	52	50.5	3	9	90	0.00	30.089 
10:05	68.9	68.9	68.9	52	50.5	3	7	90	0.00	30.088 
10:10	68.9	68.9	68.9	56	52.5	3	7	90	0.00	30.087 
10:15	69.3	69.3	69.3	55	52.4	2	5	90	0.00	30.088 
10:20	69.3	69.3	69.3	56	52.9	2	4	90	0.00	30.088 
10:25	69.1	69.1	69.1	57	53.2	2	4	90	0.00	30.088 
10:30	69.1	69.1	69.1	56	52.7	2	6	112	0.00	30.088 
10:35	69.1	69.1	69.1	57	53.2	2	5	90	0.00	30.089 
10:40	69.3	69.3	69.3	55	52.4	2	4	90	0.00	30.088 
10:45	69.8	69.8	69.8	60	55.3	1	3	90	0.00	30.087 
10:50	70.3	70.3	70.3	57	54.3	2	4	90	0.00	30.087 
10:55	70.8	70.8	70.8	52	52.3	2	5	90	0.00	30.087 
11:00	70.6	70.6	70.6	52	52.1	2	5	112	0.00	30.087 
11:05	70.6	70.6	70.6	55	53.6	1	4	90	0.00	30.088 
11:10	70.6	70.6	70.6	57	54.6	1	4	90	0.00	30.086 
11:15	70.9	70.9	70.9	54	53.4	1	4	135	0.00	30.083 
11:20	71.1	71.1	71.1	56	54.6	2	6	112	0.00	30.081 
11:25	71.6	71.6	71.6	53	53.5	1	3	112	0.00	30.078 
11:30	72.1	72.1	72.1	56	55.5	2	5	112	0.00	30.076 
11:35	72.0	72.0	72.0	50	52.3	2	4	90	0.00	30.079 
11:40	71.8	71.8	71.8	52	53.2	1	4	112	0.00	30.079 
11:45	71.8	71.8	71.8	48	51.0	2	4	112	0.00	30.081 
11:50	71.5	71.5	71.5	52	52.9	2	5	112	0.00	30.080 
11:55	72.0	72.0	72.0	50	52.3	2	4	112	0.00	30.076 
12:00	72.1	72.1	72.1	51	53.0	2	5	112	0.00	30.079 
12:05	72.1	72.1	72.1	50	52.4	2	5	112	0.00	30.077 
12:10	72.1	72.1	72.1	52	53.5	2	6	90	0.00	30.079 
12:15	72.3	72.3	72.3	50	52.6	1	4	90	0.00	30.080 
12:20	72.5	72.5	72.5	51	53.3	1	6	90	0.00	30.078 
12:25	72.8	72.8	72.8	49	52.5	2	5	68	0.00	30.080 
12:30	73.0	73.0	73.0	50	53.2	2	7	90	0.00	30.075 
12:35	72.8	72.8	72.8	48	52.0	2	5	90	0.00	30.074 
12:40	72.7	72.7	72.7	51	53.5	2	5	112	0.00	30.074 
12:45	73.0	73.0	73.0	48	52.1	2	4	112	0.00	30.072 
12:50	73.0	73.0	73.0	48	52.1	3	6	90	0.00	30.073 
12:55	72.8	72.8	72.8	49	52.5	2	5	90	0.00	30.072 
13:00	73.0	73.0	73.0	49	52.7	1	4	112	0.00	30.072 
13:05	73.2	73.2	73.2	47	51.7	1	4	112	0.00	30.074 
13:10	73.3	73.3	73.3	50	53.5	1	3	135	0.00	30.073 
13:15	73.7	73.7	73.7	48	52.8	1	5	112	0.00	30.073 
13:20	73.3	73.3	73.3	47	51.8	3	6	90	0.00	30.074 
13:25	73.2	73.2	73.2	48	52.3	2	5	90	0.00	30.072 
13:30	73.5	73.5	73.5	48	52.6	1	3	112	0.00	30.071 
13:35	73.9	73.9	73.9	47	52.4	2	5	90	0.00	30.071 
13:40	73.9	73.9	73.9	50	54.1	1	5	112	0.00	30.072 
13:45	73.9	73.9	73.9	46	51.8	1	2	90	0.00	30.071 
13:50	73.9	73.9	73.9	48	53.0	0	2	90	0.00	30.063 
13:55	73.9	73.9	73.9	46	51.8	1	5	90	0.00	30.068 
14:00	73.9	73.9	73.9	49	53.5	0	3	90	0.00	30.069 
14:05	73.9	73.9	73.9	53	55.7	1	2	90	0.00	30.068 
14:10	74.0	74.0	74.0	46	51.9	1	4	90	0.00	30.065 
14:15	73.9	73.9	73.9	46	51.8	2	4	112	0.00	30.061 
14:20	73.7	73.7	73.7	48	52.8	0	2	112	0.00	30.064 
14:25	74.0	74.0	74.0	51	54.7	0	3	112	0.00	30.060 
14:30	73.9	73.9	73.9	45	51.2	1	3	112	0.00	30.060 
14:35	73.7	73.7	73.7	49	53.3	1	4	90	0.00	30.060 
14:40	73.7	73.7	73.7	51	54.4	1	4	90	0.00	30.059 
14:45	74.0	74.0	74.0	47	52.5	0	2	90	0.00	30.049 
14:50	74.0	74.0	74.0	48	53.0	1	4	90	0.00	30.049 
14:55	74.2	74.2	74.2	46	52.1	0	1	90	0.00	30.048 
15:00	74.4	74.4	74.4	47	52.8	0	2	90	0.00	30.046 
15:05	74.6	74.6	74.6	51	55.3	0	1	90	0.00	30.044 
15:10	74.4	74.4	74.4	50	54.5	0	1	90	0.00	30.046 
15:15	74.4	74.4	74.4	46	52.3	0	2	90	0.00	30.044 
15:20	74.6	74.6	74.6	50	54.7	0	1	90	0.00	30.041 
15:25	74.7	74.7	74.7	49	54.3	0	2	90	0.00	30.040 
15:30	74.9	74.9	74.9	47	53.3	0	1	90	0.00	30.041 
15:35	75.3	75.3	77.7	48	54.2	1	3	90	0.00	30.038 
15:40	75.3	75.3	77.7	46	53.1	0	2	90	0.00	30.037 
15:45	75.3	75.3	77.7	46	53.1	0	1	90	0.00	30.033 
15:50	75.1	75.1	77.7	47	53.5	0	1	90	0.00	30.031 
15:55	75.4	75.4	77.8	48	54.3	0	0	---	0.00	30.030 
16:00	75.6	75.6	77.9	48	54.5	0	1	90	0.00	30.027 
16:05	75.6	75.6	77.9	51	56.2	0	0	---	0.00	30.027 
16:10	75.4	75.4	77.8	48	54.3	0	1	90	0.00	30.028 
16:15	75.3	75.3	77.7	48	54.2	1	3	90	0.00	30.027 
16:20	74.9	74.9	74.9	48	53.9	1	2	90	0.00	30.019 
16:25	75.1	75.1	77.7	49	54.6	0	2	90	0.00	30.019 
16:30	75.1	75.1	77.7	48	54.1	0	1	90	0.00	30.025 
16:35	75.1	75.1	77.7	46	52.9	1	3	90	0.00	30.027 
16:40	75.1	75.1	77.7	49	54.6	0	2	90	0.00	30.026 
16:45	75.1	75.1	77.7	49	54.6	0	2	158	0.00	30.027 
16:50	74.9	74.9	74.9	47	53.3	0	1	158	0.00	30.025 
16:55	74.9	74.9	74.9	49	54.4	0	1	158	0.00	30.024 
17:00	75.1	75.1	77.7	50	55.2	0	1	158	0.00	30.025 
17:05	75.3	75.3	77.7	49	54.8	0	3	158	0.00	30.025 
17:10	75.3	75.3	77.7	53	57.0	0	2	112	0.00	30.022 
17:15	74.9	74.9	74.9	50	55.0	0	1	112	0.00	30.027 
17:20	74.6	74.6	74.6	52	55.8	0	3	90	0.00	30.025 
17:25	74.2	74.2	74.2	53	56.0	0	1	90	0.00	30.026 
17:30	74.2	74.2	74.2	51	54.9	0	3	90	0.00	30.025 
17:35	74.0	74.0	74.0	52	55.2	0	1	90	0.00	30.025 
17:40	74.0	74.0	74.0	53	55.8	0	0	---	0.00	30.026 
17:45	74.2	74.2	74.2	53	56.0	0	2	90	0.00	30.024 
17:50	74.0	74.0	74.0	52	55.2	0	1	90	0.00	30.024 
17:55	73.9	73.9	73.9	51	54.6	0	1	90	0.00	30.023 
18:00	73.9	73.9	73.9	51	54.6	0	1	90	0.00	30.026 
18:05	73.9	73.9	73.9	52	55.1	0	1	90	0.00	30.027 
18:10	73.7	73.7	73.7	52	55.0	0	1	90	0.00	30.027 
18:15	73.5	73.5	73.5	54	55.8	0	1	90	0.00	30.027 
18:20	73.5	73.5	73.5	54	55.8	0	1	90	0.00	30.027 
18:25	73.3	73.3	73.3	54	55.6	0	1	90	0.00	30.027 
18:30	73.3	73.3	73.3	54	55.6	0	0	---	0.00	30.030 
18:35	73.3	73.3	73.3	54	55.6	0	1	90	0.00	30.030 
18:40	73.2	73.2	73.2	54	55.5	0	1	90	0.00	30.033 
18:45	73.2	73.2	73.2	54	55.5	0	0	---	0.00	30.033 
18:50	73.0	73.0	73.0	56	56.4	0	0	---	0.00	30.035 
18:55	72.8	72.8	72.8	56	56.2	0	1	90	0.00	30.031 
19:00	72.8	72.8	72.8	55	55.7	0	0	---	0.00	30.032 
19:05	72.8	72.8	72.8	55	55.7	0	0	---	0.00	30.030 
19:10	72.7	72.7	72.7	56	56.1	0	1	90	0.00	30.029 
19:15	72.5	72.5	72.5	56	55.9	0	0	---	0.00	30.031 
19:20	72.3	72.3	72.3	57	56.2	0	0	---	0.00	30.031 
19:25	72.1	72.1	72.1	57	56.0	0	0	---	0.00	30.034 
19:30	72.0	72.0	72.0	56	55.4	0	0	---	0.00	30.030 
19:35	71.8	71.8	71.8	58	56.2	0	0	---	0.00	30.034 
19:40	71.8	71.8	71.8	58	56.2	0	0	---	0.00	30.032 
19:45	71.6	71.6	71.6	58	56.0	0	0	---	0.00	30.032 
19:50	71.3	71.3	71.3	58	55.7	0	0	---	0.00	30.032 
19:55	71.1	71.1	71.1	59	56.0	0	0	---	0.00	30.031 
20:00	70.9	70.9	70.9	59	55.8	0	0	---	0.00	30.030 
20:05	70.6	70.6	70.6	60	56.0	0	0	---	0.00	30.027 
20:10	70.3	70.3	70.3	60	55.7	0	0	---	0.00	30.028 
20:15	69.9	69.9	69.9	61	55.8	0	0	---	0.00	30.029 
20:20	69.4	69.4	69.4	62	55.8	0	0	---	0.00	30.030 
20:25	69.1	69.1	69.1	63	56.0	0	0	---	0.00	30.029 
20:30	68.8	68.8	68.8	65	56.5	0	0	---	0.00	30.028 
20:35	68.4	68.4	68.4	65	56.2	0	0	---	0.00	30.029 
20:40	67.9	67.9	67.9	66	56.1	0	0	---	0.00	30.032 
20:45	67.6	67.6	67.6	68	56.7	0	0	---	0.00	30.035 
20:50	67.1	67.1	67.1	69	56.6	0	0	---	0.00	30.035 
20:55	66.9	66.9	66.9	70	56.8	0	0	---	0.00	30.037 
21:00	66.4	66.4	66.4	71	56.7	0	0	---	0.00	30.040 
21:05	66.3	66.3	66.3	72	57.0	0	0	---	0.00	30.044 
21:10	66.0	66.0	66.0	73	57.1	0	0	---	0.00	30.044 
21:15	65.6	65.6	65.6	73	56.7	0	0	---	0.00	30.045 
21:20	65.5	65.5	65.5	74	57.0	0	0	---	0.00	30.045 
21:25	65.2	65.2	65.2	76	57.4	0	0	---	0.00	30.050 
21:30	65.0	65.0	65.0	76	57.2	0	0	---	0.00	30.049 
21:35	64.8	64.8	64.8	76	57.0	0	0	---	0.00	30.050 
21:40	64.7	64.7	64.7	77	57.3	0	0	---	0.00	30.056 
21:45	64.5	64.5	64.5	77	57.1	0	0	---	0.00	30.051 
21:50	64.3	64.3	64.3	77	56.9	0	0	---	0.00	30.051 
21:55	64.2	64.2	64.2	77	56.8	0	0	---	0.00	30.048 
22:00	64.0	64.0	64.0	77	56.6	0	0	---	0.00	30.049 
22:05	63.9	63.9	63.9	77	56.5	0	0	---	0.00	30.048 
22:10	63.9	63.9	63.9	77	56.5	0	0	---	0.00	30.048 
22:15	63.7	63.7	63.7	77	56.3	0	0	---	0.00	30.049 
22:20	63.5	63.5	63.5	76	55.8	0	0	---	0.00	30.048 
22:25	63.4	63.4	63.4	74	55.0	0	0	---	0.00	30.051 
22:30	63.2	63.2	63.2	74	54.8	0	0	---	0.00	30.050 
22:35	63.2	63.2	63.2	73	54.4	0	0	---	0.00	30.053 
22:40	63.1	63.1	63.1	73	54.3	0	0	---	0.00	30.053 
22:45	62.9	62.9	62.9	73	54.1	0	0	---	0.00	30.058 
22:50	62.7	62.7	62.7	73	53.9	0	0	---	0.00	30.057 
22:55	62.6	62.6	62.6	74	54.2	0	0	---	0.00	30.057 
23:00	62.4	62.4	62.4	74	54.0	0	0	---	0.00	30.061 
23:05	62.3	62.3	62.3	75	54.3	0	0	---	0.00	30.060 
23:10	62.0	62.0	62.0	75	54.0	0	0	---	0.00	30.061 
23:15	61.8	61.8	61.8	76	54.1	0	0	---	0.00	30.061 
23:20	61.5	61.5	61.5	77	54.2	0	0	---	0.00	30.061 
23:25	61.3	61.3	61.3	77	54.0	0	0	---	0.00	30.063 
23:30	61.0	61.0	61.0	77	53.7	0	0	---	0.00	30.064 
23:35	60.9	60.9	60.9	78	54.0	0	0	---	0.00	30.064 
23:40	60.7	60.7	60.7	78	53.8	0	0	---	0.00	30.066 
23:45	60.7	60.7	60.7	78	53.8	0	0	---	0.00	30.066 
23:50	60.7	60.7	60.7	79	54.1	0	0	---	0.00	30.064 
23:55	60.5	60.5	60.5	79	54.0	0	0	---	0.00	30.063 

CoCoRaHS
IN-AL-39
A2 Web Hosting
Creative Commons License
GoDaddy
Look for:

loaded 2017-12-13 02:52:18 • last modified 2010-11-18 10:43:29
Privacy PolicyDisclaimer
• wx.awcolley.com is powered by PmWiki v.2002016 •
• all content (unless otherwise noted) © 2017 A W Colley